Time;durP1;ratioP1;P1;durP2;ratioP2;P2;SDS_P1;SDS_P2;PMS_P1;PMS_P2;Temp;Humidity;BMP_temperature;BMP_pressure;BME280_temperature;BME280_humidity;BME280_pressure;Samples;Min_cycle;Max_cycle;Signal;HPM_P1;HPM_P2
2023/02/06 00:01:21;;;;;;;23.48;6.57;;;;;;;2.75;100.00;103046.13;5064652;28;20033;-81
2023/02/06 00:03:47;;;;;;;24.17;8.00;;;;;;;2.79;100.00;103049.50;5057057;28;20021;-81
2023/02/06 00:06:13;;;;;;;19.58;6.57;;;;;;;2.84;100.00;103050.28;5065447;28;20538;-81
2023/02/06 00:08:39;;;;;;;18.77;5.90;;;;;;;2.88;100.00;103051.09;5081576;28;20041;-80
2023/02/06 00:11:06;;;;;;;17.67;7.20;;;;;;;2.94;100.00;103046.63;5067640;28;20558;-81
2023/02/06 00:13:33;;;;;;;23.60;12.40;;;;;;;2.89;100.00;103040.63;5067740;28;20033;-81
2023/02/06 00:15:59;;;;;;;23.33;11.40;;;;;;;2.83;100.00;103044.22;5061711;28;20151;-81
2023/02/06 00:18:25;;;;;;;21.90;10.45;;;;;;;2.81;100.00;103034.69;5069611;28;20028;-81
2023/02/06 00:20:51;;;;;;;23.27;10.85;;;;;;;2.79;100.00;103031.22;5077802;28;20047;-80
2023/02/06 00:23:17;;;;;;;19.73;10.32;;;;;;;2.80;100.00;103023.34;5062221;28;20036;-81
2023/02/06 00:25:43;;;;;;;24.50;10.95;;;;;;;2.81;100.00;103019.88;4987186;28;20037;-80
2023/02/06 00:28:09;;;;;;;17.00;9.95;;;;;;;2.81;100.00;103017.25;5049696;28;20108;-81
2023/02/06 00:30:35;;;;;;;15.18;5.28;;;;;;;2.79;100.00;103016.41;5053246;28;20490;-81
2023/02/06 00:33:01;;;;;;;18.73;8.32;;;;;;;2.76;100.00;103008.66;5070058;28;20093;-80
2023/02/06 00:35:27;;;;;;;32.35;9.02;;;;;;;2.70;100.00;103011.38;5078653;28;20488;-81
2023/02/06 00:37:53;;;;;;;25.40;9.73;;;;;;;2.65;100.00;103007.97;5053986;28;20032;-81
2023/02/06 00:40:18;;;;;;;29.10;8.05;;;;;;;2.65;100.00;103005.38;5058890;28;20441;-80
2023/02/06 00:42:44;;;;;;;23.67;7.95;;;;;;;2.65;100.00;103008.84;5045304;28;20032;-81
2023/02/06 00:45:11;;;;;;;26.38;6.03;;;;;;;2.68;100.00;103010.53;5067379;28;20044;-81
2023/02/06 00:47:37;;;;;;;19.88;5.85;;;;;;;2.76;100.00;103003.41;5046071;28;20123;-81
2023/02/06 00:50:04;;;;;;;19.02;6.05;;;;;;;2.85;100.00;103007.63;5060964;28;20049;-81
2023/02/06 00:52:29;;;;;;;19.08;6.15;;;;;;;2.93;100.00;102997.03;5041635;28;20432;-81
2023/02/06 00:54:55;;;;;;;26.33;7.03;;;;;;;3.00;100.00;102998.59;5061951;28;20108;-81
2023/02/06 00:57:21;;;;;;;22.23;6.75;;;;;;;3.07;100.00;102992.34;5040585;28;20498;-81
2023/02/06 00:59:47;;;;;;;16.90;5.60;;;;;;;3.16;100.00;102987.81;5062383;28;20066;-81
2023/02/06 01:02:13;;;;;;;21.70;7.45;;;;;;;3.23;100.00;102989.44;5052815;28;20473;-81
2023/02/06 01:04:38;;;;;;;25.20;7.85;;;;;;;3.26;100.00;102991.97;5071260;28;20044;-81
2023/02/06 01:07:05;;;;;;;25.55;9.50;;;;;;;3.28;100.00;102995.41;5050524;28;20036;-81
2023/02/06 01:09:31;;;;;;;23.50;9.50;;;;;;;3.23;100.00;102992.06;5045071;28;20115;-81
2023/02/06 01:11:56;;;;;;;30.27;11.48;;;;;;;3.20;100.00;102990.34;5080948;28;20109;-81
2023/02/06 01:14:22;;;;;;;24.58;11.07;;;;;;;3.10;100.00;102988.84;5064710;28;20455;-81
2023/02/06 01:16:48;;;;;;;24.42;11.90;;;;;;;2.97;100.00;102983.88;5064257;28;20051;-81
2023/02/06 01:19:14;;;;;;;27.55;11.27;;;;;;;2.92;100.00;102980.47;5068073;28;20487;-80
2023/02/06 01:21:39;;;;;;;24.23;11.15;;;;;;;2.90;100.00;102984.03;5012358;28;20033;-81
2023/02/06 01:24:05;;;;;;;22.40;9.65;;;;;;;2.95;100.00;102979.53;5048830;28;20124;-81
2023/02/06 01:26:31;;;;;;;22.25;10.40;;;;;;;3.03;100.00;102976.75;5083616;28;20035;-80
2023/02/06 01:28:57;;;;;;;23.88;11.15;;;;;;;3.09;100.00;102974.06;5066028;28;20087;-81
2023/02/06 01:31:28;;;;;;;31.05;10.15;;;;;;;3.18;100.00;102986.06;5065418;28;20497;-81
2023/02/06 01:33:58;;;;;;;25.73;10.25;;;;;;;3.23;100.00;102974.59;5061274;28;20052;-81
2023/02/06 01:36:24;;;;;;;24.80;10.32;;;;;;;3.26;100.00;102976.31;5047843;28;20056;-80
2023/02/06 01:38:51;;;;;;;23.17;10.50;;;;;;;3.28;100.00;102971.03;5059973;28;20485;-80
2023/02/06 01:41:19;;;;;;;25.85;10.35;;;;;;;3.30;100.00;102977.94;5052511;28;20036;-81
2023/02/06 01:44:06;;;;;;;24.58;10.27;;;;;;;3.32;100.00;102967.44;5067848;28;20480;-81
2023/02/06 01:46:32;;;;;;;27.38;9.57;;;;;;;3.31;100.00;102973.59;5043067;28;20177;-81
2023/02/06 01:49:00;;;;;;;23.08;10.43;;;;;;;3.33;100.00;102975.25;5065362;28;20111;-81
2023/02/06 01:51:28;;;;;;;27.27;9.35;;;;;;;3.32;100.00;102975.28;5028720;28;20123;-81
2023/02/06 01:53:59;;;;;;;25.10;9.20;;;;;;;3.31;100.00;102968.34;5045238;28;20420;-81
2023/02/06 01:56:28;;;;;;;25.63;9.75;;;;;;;3.31;100.00;102973.59;5068197;28;20060;-80
2023/02/06 01:58:58;;;;;;;23.27;10.02;;;;;;;3.37;100.00;102972.56;5043847;28;20048;-80
2023/02/06 02:01:25;;;;;;;23.17;8.32;;;;;;;3.40;100.00;102964.66;5043320;28;20039;-81
2023/02/06 02:03:55;;;;;;;16.30;7.85;;;;;;;3.45;100.00;102970.66;5065995;28;20043;-81
2023/02/06 02:06:24;;;;;;;19.02;8.02;;;;;;;3.49;100.00;102961.84;5059021;28;20025;-81
2023/02/06 02:08:53;;;;;;;26.27;7.95;;;;;;;3.54;100.00;102966.97;5062275;28;20043;-81
2023/02/06 02:11:26;;;;;;;26.27;7.88;;;;;;;3.57;100.00;102962.53;5047349;28;20473;-80
2023/02/06 02:13:54;;;;;;;17.10;7.18;;;;;;;3.59;100.00;102957.25;5066170;28;20040;-81
2023/02/06 02:16:44;;;;;;;25.15;9.77;;;;;;;3.63;100.00;102958.91;5070156;28;20098;-81
2023/02/06 02:19:22;;;;;;;31.25;9.48;;;;;;;3.56;100.00;102959.94;5029692;28;20429;-81
2023/02/06 02:22:17;;;;;;;24.52;8.68;;;;;;;3.45;100.00;102944.50;5068819;28;20024;-81
2023/02/06 02:25:06;;;;;;;23.75;8.40;;;;;;;3.31;100.00;102948.28;5067493;28;20037;-81
2023/02/06 02:28:10;;;;;;;17.83;7.20;;;;;;;3.31;100.00;102945.66;5082936;28;20039;-81
2023/02/06 02:31:23;;;;;;;17.45;6.57;;;;;;;3.35;100.00;102942.09;5077696;28;20123;-81
2023/02/06 02:34:27;;;;;;;19.90;7.72;;;;;;;3.42;100.00;102936.75;5047847;28;20135;-81
2023/02/06 02:37:28;;;;;;;21.90;8.02;;;;;;;3.46;100.00;102954.94;5044643;28;20116;-80
2023/02/06 02:40:15;;;;;;;23.08;9.68;;;;;;;3.47;100.00;102942.72;5030181;28;20074;-81
2023/02/06 02:43:06;;;;;;;20.73;8.32;;;;;;;3.52;100.00;102940.84;5057813;28;20036;-81
2023/02/06 02:45:56;;;;;;;15.02;7.35;;;;;;;3.58;100.00;102935.47;5053905;28;20754;-81
2023/02/06 02:48:50;;;;;;;19.40;8.25;;;;;;;3.56;100.00;102939.91;5080329;28;20063;-81
2023/02/06 02:51:17;;;;;;;21.80;7.82;;;;;;;3.54;100.00;102933.84;5074984;28;20142;-81
2023/02/06 02:53:43;;;;;;;23.65;9.35;;;;;;;3.50;100.00;102926.97;5076263;28;20450;-81
2023/02/06 02:56:18;;;;;;;24.20;9.13;;;;;;;3.52;100.00;102916.47;5078782;28;21139;-81
2023/02/06 02:58:47;;;;;;;22.20;10.10;;;;;;;3.52;100.00;102922.53;5076545;28;20478;-81
2023/02/06 03:01:20;;;;;;;19.65;9.23;;;;;;;3.55;100.00;102917.22;5069504;28;20385;-80
2023/02/06 03:03:48;;;;;;;21.63;9.82;;;;;;;3.57;100.00;102914.59;5086740;28;20740;-81
2023/02/06 03:06:17;;;;;;;20.55;9.10;;;;;;;3.52;100.00;102912.06;5063681;28;20392;-81
2023/02/06 03:09:18;;;;;;;18.38;8.60;;;;;;;3.53;100.00;102912.94;5075290;28;20555;-81
2023/02/06 03:11:53;;;;;;;27.73;9.15;;;;;;;3.49;100.00;102906.09;5044022;28;20032;-81
2023/02/06 03:14:38;;;;;;;28.40;9.93;;;;;;;3.45;100.00;102905.28;5065250;28;20618;-81
2023/02/06 03:17:09;;;;;;;26.27;10.18;;;;;;;3.41;100.00;102896.66;5063285;28;20028;-81
2023/02/06 03:19:43;;;;;;;26.13;8.63;;;;;;;3.44;100.00;102890.50;5045580;28;20029;-80
2023/02/06 03:22:09;;;;;;;21.75;9.68;;;;;;;3.49;100.00;102890.41;5050353;28;20388;-80
2023/02/06 03:24:38;;;;;;;26.08;8.73;;;;;;;3.58;100.00;102882.31;5067684;28;20056;-80
2023/02/06 03:27:09;;;;;;;19.00;8.50;;;;;;;3.63;100.00;102883.03;5062964;28;20048;-81
2023/02/06 03:29:37;;;;;;;17.08;7.68;;;;;;;3.66;100.00;102885.63;5058328;28;20528;-81
2023/02/06 03:32:06;;;;;;;25.08;9.02;;;;;;;3.71;100.00;102875.88;5070528;28;20033;-81
2023/02/06 03:34:38;;;;;;;24.20;9.68;;;;;;;3.76;100.00;102874.91;5054426;28;20041;-81
2023/02/06 03:37:04;;;;;;;21.25;7.93;;;;;;;3.77;100.00;102872.25;5057675;28;20052;-81
2023/02/06 03:39:30;;;;;;;18.25;7.65;;;;;;;3.80;100.00;102866.06;5044849;28;20068;-81
2023/02/06 03:41:58;;;;;;;22.40;8.02;;;;;;;3.83;100.00;102860.75;5048840;28;20094;-80
2023/02/06 03:44:30;;;;;;;17.20;7.35;;;;;;;3.87;100.00;102857.16;5073716;28;20052;-81
2023/02/06 03:46:58;;;;;;;16.67;7.35;;;;;;;3.88;100.00;102851.03;5064533;28;20032;-81
2023/02/06 03:49:28;;;;;;;23.20;8.38;;;;;;;3.94;100.00;102847.41;5058418;28;20396;-81
2023/02/06 03:52:10;;;;;;;22.25;6.80;;;;;;;3.93;100.00;102854.41;5082725;28;20109;-81
2023/02/06 03:54:40;;;;;;;16.63;6.20;;;;;;;3.85;100.00;102841.50;5083087;28;20085;-81
2023/02/06 03:57:11;;;;;;;20.35;5.95;;;;;;;3.84;100.00;102831.94;5056880;28;20484;-80
2023/02/06 03:59:37;;;;;;;19.00;4.85;;;;;;;3.85;100.00;102832.81;5061715;28;20032;-81
2023/02/06 04:02:04;;;;;;;16.80;6.45;;;;;;;3.89;100.00;102833.56;5059867;28;20032;-81
2023/02/06 04:04:36;;;;;;;22.58;5.78;;;;;;;3.93;100.00;102828.25;5039946;28;20037;-81
2023/02/06 04:07:13;;;;;;;12.05;5.05;;;;;;;3.98;100.00;102825.50;5057695;28;20591;-81
2023/02/06 04:09:39;;;;;;;14.57;6.47;;;;;;;3.95;100.00;102818.56;5060562;28;20069;-80
2023/02/06 04:12:05;;;;;;;19.23;6.45;;;;;;;3.94;100.00;102824.72;5043259;28;20385;-80
2023/02/06 04:14:31;;;;;;;13.90;6.68;;;;;;;3.95;100.00;102822.97;5063398;28;20037;-80
2023/02/06 04:16:57;;;;;;;17.10;4.45;;;;;;;3.98;100.00;102815.03;5053003;28;20123;-80
2023/02/06 04:19:23;;;;;;;16.60;5.47;;;;;;;4.00;100.00;102815.00;5070927;28;20028;-81
2023/02/06 04:21:48;;;;;;;13.38;3.65;;;;;;;4.04;100.00;102812.25;5062725;28;20033;-80
2023/02/06 04:24:14;;;;;;;11.73;3.20;;;;;;;4.10;100.00;102803.34;5084159;28;20028;-81
2023/02/06 04:26:40;;;;;;;13.88;3.67;;;;;;;4.15;100.00;102808.44;5056433;28;20037;-80
2023/02/06 04:29:06;;;;;;;18.77;4.30;;;;;;;4.20;100.00;102809.19;5034822;28;20037;-80
2023/02/06 04:31:31;;;;;;;11.93;4.93;;;;;;;4.22;100.00;102812.63;5062607;28;20473;-80
2023/02/06 04:33:57;;;;;;;13.60;5.53;;;;;;;4.24;100.00;102810.81;5060991;28;20119;-81
2023/02/06 04:36:23;;;;;;;20.48;5.72;;;;;;;4.22;100.00;102802.16;5078924;28;20063;-80
2023/02/06 04:38:49;;;;;;;16.95;5.53;;;;;;;4.22;100.00;102795.13;5067054;28;20499;-80
2023/02/06 04:41:15;;;;;;;13.10;4.20;;;;;;;4.24;100.00;102795.09;5085105;28;20510;-80
2023/02/06 04:43:41;;;;;;;15.95;5.30;;;;;;;4.28;100.00;102801.13;5081749;28;20071;-80
2023/02/06 04:46:07;;;;;;;12.73;3.50;;;;;;;4.29;100.00;102790.59;5067419;28;20512;-80
2023/02/06 04:48:33;;;;;;;12.10;2.90;;;;;;;4.30;100.00;102792.31;5061047;28;20032;-81
2023/02/06 04:50:58;;;;;;;9.70;3.20;;;;;;;4.34;100.00;102798.31;5067712;28;20043;-80
2023/02/06 04:53:24;;;;;;;13.70;2.83;;;;;;;4.37;100.00;102797.34;5066216;28;20476;-81
2023/02/06 04:55:50;;;;;;;12.02;2.95;;;;;;;4.42;100.00;102787.59;5066344;28;20550;-81
2023/02/06 04:58:15;;;;;;;7.63;2.85;;;;;;;4.46;100.00;102786.59;5046430;28;20044;-81
2023/02/06 05:00:41;;;;;;;12.75;3.55;;;;;;;4.51;100.00;102789.94;5065999;28;20029;-80
2023/02/06 05:03:07;;;;;;;16.27;3.42;;;;;;;4.56;100.00;102789.81;5062580;28;20035;-80
2023/02/06 05:05:33;;;;;;;8.57;2.75;;;;;;;4.58;100.00;102788.88;5061052;28;20025;-81
2023/02/06 05:07:58;;;;;;;10.10;2.90;;;;;;;4.62;100.00;102783.53;5074226;28;20036;-80
2023/02/06 05:10:25;;;;;;;17.15;4.20;;;;;;;4.64;100.00;102786.94;5063389;28;20121;-81
2023/02/06 05:12:51;;;;;;;10.15;2.60;;;;;;;4.64;100.00;102777.34;5044084;28;20043;-80
2023/02/06 05:15:17;;;;;;;15.48;3.03;;;;;;;4.64;100.00;102771.22;5078293;28;20032;-80
2023/02/06 05:17:43;;;;;;;12.90;3.30;;;;;;;4.64;100.00;102777.34;5062975;28;22039;-80
2023/02/06 05:20:09;;;;;;;17.38;2.97;;;;;;;4.67;100.00;102773.75;5049975;28;20082;-80
2023/02/06 05:22:35;;;;;;;12.50;3.15;;;;;;;4.67;100.00;102772.00;5062337;28;20345;-80
2023/02/06 05:25:01;;;;;;;16.80;3.42;;;;;;;4.68;100.00;102768.47;5058289;28;20136;-80
2023/02/06 05:27:26;;;;;;;11.98;3.13;;;;;;;4.71;100.00;102762.28;5061919;28;20430;-80
2023/02/06 05:29:52;;;;;;;10.65;2.90;;;;;;;4.72;100.00;102758.75;5059097;28;20060;-80
2023/02/06 05:32:18;;;;;;;12.98;3.38;;;;;;;4.75;100.00;102756.03;5065378;28;20063;-80
2023/02/06 05:34:44;;;;;;;9.32;2.72;;;;;;;4.75;100.00;102758.66;5059306;28;20056;-80
2023/02/06 05:37:11;;;;;;;12.48;3.10;;;;;;;4.77;100.00;102754.25;5077470;28;20040;-80
2023/02/06 05:39:36;;;;;;;12.63;3.05;;;;;;;4.79;100.00;102757.69;5065353;28;20039;-80
2023/02/06 05:42:02;;;;;;;14.40;3.15;;;;;;;4.77;100.00;102756.00;5029145;28;20041;-80
2023/02/06 05:44:28;;;;;;;10.50;2.42;;;;;;;4.76;100.00;102755.13;5063017;28;20040;-81
2023/02/06 05:46:55;;;;;;;30.40;4.00;;;;;;;4.76;100.00;102749.88;5061543;28;20032;-80
2023/02/06 05:49:21;;;;;;;15.05;2.72;;;;;;;4.78;100.00;102745.47;5062024;28;20036;-80
2023/02/06 05:51:47;;;;;;;7.30;2.35;;;;;;;4.81;100.00;102747.16;5054821;28;20029;-80
2023/02/06 05:54:15;;;;;;;13.07;2.17;;;;;;;4.80;100.00;102743.66;5065542;28;20393;-80
2023/02/06 05:56:41;;;;;;;16.45;2.65;;;;;;;4.81;100.00;102745.38;5079093;28;20087;-80
2023/02/06 05:59:07;;;;;;;12.02;2.40;;;;;;;4.82;100.00;102754.09;5056142;28;20036;-80
2023/02/06 06:01:33;;;;;;;13.98;3.10;;;;;;;4.79;100.00;102743.72;5060531;28;20105;-81
2023/02/06 06:03:59;;;;;;;12.27;2.58;;;;;;;4.80;100.00;102748.91;5053714;28;20489;-80
2023/02/06 06:06:25;;;;;;;10.98;2.30;;;;;;;4.80;100.00;102743.66;5048152;28;20082;-80
2023/02/06 06:08:51;;;;;;;14.38;2.40;;;;;;;4.81;100.00;102744.53;5062693;28;20037;-80
2023/02/06 06:11:16;;;;;;;12.77;1.90;;;;;;;4.80;100.00;102741.03;5076460;28;20033;-80
2023/02/06 06:13:42;;;;;;;6.70;2.03;;;;;;;4.81;100.00;102737.50;5058003;28;20097;-80
2023/02/06 06:16:08;;;;;;;11.30;2.20;;;;;;;4.81;100.00;102732.25;5044753;28;20045;-81
2023/02/06 06:18:33;;;;;;;8.88;1.85;;;;;;;4.82;100.00;102741.84;5059807;28;20025;-80
2023/02/06 06:20:59;;;;;;;16.08;2.17;;;;;;;4.83;100.00;102733.09;5079198;28;20029;-80
2023/02/06 06:23:25;;;;;;;12.70;2.45;;;;;;;4.84;100.00;102726.09;5058055;28;20059;-81
2023/02/06 06:25:51;;;;;;;21.48;2.70;;;;;;;4.84;100.00;102726.09;5059999;28;20111;-80
2023/02/06 06:28:17;;;;;;;14.02;1.98;;;;;;;4.84;100.00;102721.69;5079706;28;20028;-81
2023/02/06 06:30:43;;;;;;;6.65;1.67;;;;;;;4.86;100.00;102716.38;5002009;28;20090;-80
2023/02/06 06:33:08;;;;;;;15.18;2.30;;;;;;;4.87;100.00;102715.50;5078307;28;20056;-80
2023/02/06 06:35:35;;;;;;;12.18;2.10;;;;;;;4.88;100.00;102713.72;5076408;28;20039;-80
2023/02/06 06:38:01;;;;;;;13.10;2.15;;;;;;;4.89;100.00;102715.44;5065143;28;20556;-80
2023/02/06 06:40:26;;;;;;;10.57;2.17;;;;;;;4.93;100.00;102709.19;5042203;28;20035;-80
2023/02/06 06:42:52;;;;;;;10.30;1.77;;;;;;;4.95;100.00;102704.75;5079399;28;20120;-80
2023/02/06 06:45:18;;;;;;;11.35;2.22;;;;;;;4.97;100.00;102713.41;5063360;28;20078;-80
2023/02/06 06:47:44;;;;;;;14.38;2.65;;;;;;;4.99;100.00;102702.88;5060403;28;20373;-80
2023/02/06 06:50:09;;;;;;;8.45;2.25;;;;;;;5.01;100.00;102709.78;5049093;28;20060;-80
2023/02/06 06:52:35;;;;;;;6.55;1.85;;;;;;;5.03;100.00;102709.75;5025761;28;20055;-80
2023/02/06 06:55:02;;;;;;;16.70;2.10;;;;;;;5.05;100.00;102714.00;5057274;28;20040;-80
2023/02/06 06:57:31;;;;;;;12.73;2.30;;;;;;;5.09;100.00;102704.28;5082076;28;20032;-80
2023/02/06 06:59:56;;;;;;;11.05;2.70;;;;;;;5.08;100.00;102707.84;5077322;28;20028;-80
2023/02/06 07:02:22;;;;;;;10.90;2.05;;;;;;;5.09;100.00;102709.53;5071939;28;20397;-80
2023/02/06 07:04:48;;;;;;;13.07;2.97;;;;;;;5.13;100.00;102712.91;5050746;28;20078;-80
2023/02/06 07:07:14;;;;;;;11.68;2.42;;;;;;;5.15;100.00;102698.84;5081315;28;20025;-80
2023/02/06 07:09:40;;;;;;;14.15;2.20;;;;;;;5.21;100.00;102700.38;5063545;28;20044;-80
2023/02/06 07:12:05;;;;;;;12.68;2.03;;;;;;;5.21;100.00;102701.25;5053898;28;20033;-80
2023/02/06 07:14:31;;;;;;;13.73;1.83;;;;;;;5.22;100.00;102696.88;5063506;28;20602;-80
2023/02/06 07:16:58;;;;;;;11.38;2.00;;;;;;;5.23;100.00;102701.19;5048856;28;20103;-80
2023/02/06 07:19:24;;;;;;;15.80;1.80;;;;;;;5.25;100.00;102696.75;5063609;28;20029;-80
2023/02/06 07:21:50;;;;;;;13.48;2.25;;;;;;;5.25;100.00;102693.28;5063200;28;20024;-79
2023/02/06 07:24:16;;;;;;;8.70;1.90;;;;;;;5.26;100.00;102695.84;5067419;28;20036;-80
2023/02/06 07:26:42;;;;;;;15.75;2.70;;;;;;;5.27;100.00;102705.41;5071357;28;20519;-80
2023/02/06 07:29:08;;;;;;;10.80;1.77;;;;;;;5.29;100.00;102706.22;5069679;28;20033;-80
2023/02/06 07:31:34;;;;;;;11.23;2.03;;;;;;;5.30;100.00;102701.84;5063104;28;20385;-80
2023/02/06 07:34:01;;;;;;;14.68;2.00;;;;;;;5.32;100.00;102703.50;5066911;28;20045;-80
2023/02/06 07:36:26;;;;;;;16.60;2.03;;;;;;;5.30;100.00;102709.72;5066689;28;20029;-80
2023/02/06 07:38:52;;;;;;;12.73;2.10;;;;;;;5.31;100.00;102696.53;5041657;28;20035;-80
2023/02/06 07:41:18;;;;;;;17.20;2.72;;;;;;;5.32;100.00;102700.88;5070967;28;20032;-80
2023/02/06 07:43:44;;;;;;;14.13;1.92;;;;;;;5.32;100.00;102698.25;5049682;28;20043;-80
2023/02/06 07:46:09;;;;;;;10.13;1.92;;;;;;;5.35;100.00;102702.53;5054943;28;20492;-80
2023/02/06 07:48:35;;;;;;;15.13;2.28;;;;;;;5.38;100.00;102707.69;5081234;28;20037;-80
2023/02/06 07:51:07;;;;;;;11.82;2.03;;;;;;;5.43;100.00;102699.66;5077968;28;20025;-80
2023/02/06 07:53:34;;;;;;;11.77;1.55;;;;;;;5.40;100.00;102705.84;5082413;28;20040;-80
2023/02/06 07:56:00;;;;;;;14.55;2.38;;;;;;;5.40;100.00;102697.97;5042520;28;20477;-80
2023/02/06 07:58:27;;;;;;;14.35;2.30;;;;;;;5.38;100.00;102685.84;5060903;28;20474;-80
2023/02/06 08:00:53;;;;;;;15.95;2.47;;;;;;;5.32;100.00;102690.38;5064148;28;20052;-80
2023/02/06 08:03:19;;;;;;;12.20;2.05;;;;;;;5.28;100.00;102682.69;5067842;28;20029;-80
2023/02/06 08:05:45;;;;;;;12.27;1.70;;;;;;;5.22;100.00;102689.00;5066952;28;20481;-80
2023/02/06 08:08:11;;;;;;;9.98;2.20;;;;;;;5.20;100.00;102694.31;5066024;28;20040;-80
2023/02/06 08:10:38;;;;;;;11.27;2.97;;;;;;;5.17;100.00;102688.31;5068593;28;20413;-80
2023/02/06 08:13:04;;;;;;;25.42;2.38;;;;;;;5.11;100.00;102689.38;5045390;28;20128;-80
2023/02/06 08:15:30;;;;;;;18.17;3.67;;;;;;;5.09;100.00;102685.94;5058044;28;20159;-80
2023/02/06 08:17:56;;;;;;;11.57;2.17;;;;;;;5.08;100.00;102686.88;5050044;28;20021;-79
2023/02/06 08:20:22;;;;;;;18.13;3.00;;;;;;;5.07;100.00;102686.00;5062901;28;20060;-80
2023/02/06 08:22:47;;;;;;;12.00;1.88;;;;;;;5.06;100.00;102684.28;5063984;28;20442;-81
2023/02/06 08:25:13;;;;;;;8.57;1.55;;;;;;;5.08;100.00;102689.47;5060855;28;20504;-80
2023/02/06 08:27:39;;;;;;;11.13;1.60;;;;;;;5.09;100.00;102680.69;5080324;28;20059;-80
2023/02/06 08:30:05;;;;;;;14.88;2.45;;;;;;;5.11;100.00;102681.50;5042691;28;20064;-80
2023/02/06 08:32:33;;;;;;;15.55;2.25;;;;;;;5.13;100.00;102687.53;5047890;28;20051;-81
2023/02/06 08:34:59;;;;;;;11.35;1.77;;;;;;;5.13;100.00;102684.91;5061346;28;20036;-80
2023/02/06 08:37:26;;;;;;;11.90;1.75;;;;;;;5.14;100.00;102678.78;5061310;28;20039;-80
2023/02/06 08:39:52;;;;;;;21.05;2.50;;;;;;;5.14;100.00;102664.81;5081286;28;20495;-81
2023/02/06 08:42:17;;;;;;;14.27;2.10;;;;;;;5.15;100.00;102667.38;5068524;28;20044;-81
2023/02/06 08:44:43;;;;;;;17.55;2.33;;;;;;;5.17;100.00;102673.44;5062640;28;20039;-80
2023/02/06 08:47:09;;;;;;;8.13;1.58;;;;;;;5.15;100.00;102677.00;5065757;28;20047;-81
2023/02/06 08:49:35;;;;;;;17.38;2.45;;;;;;;5.18;100.00;102674.28;5048198;28;20052;-80
2023/02/06 08:52:01;;;;;;;14.23;2.15;;;;;;;5.20;100.00;102672.47;5068149;28;20032;-79
2023/02/06 08:54:27;;;;;;;11.32;1.85;;;;;;;5.24;100.00;102675.84;5081394;28;20077;-80
2023/02/06 08:56:55;;;;;;;14.15;2.15;;;;;;;5.27;100.00;102671.31;5069480;28;20028;-80
2023/02/06 08:59:21;;;;;;;18.23;2.17;;;;;;;5.35;100.00;102678.94;5083329;28;20085;-80
2023/02/06 09:01:48;;;;;;;10.15;1.75;;;;;;;5.39;100.00;102677.91;5063056;28;20087;-79
2023/02/06 09:04:15;;;;;;;12.50;1.77;;;;;;;5.44;100.00;102681.22;5058540;28;20115;-80
2023/02/06 09:06:42;;;;;;;15.25;2.40;;;;;;;5.49;100.00;102678.44;5063213;28;20052;-80
2023/02/06 09:09:10;;;;;;;15.00;1.75;;;;;;;5.54;100.00;102673.88;5058410;28;20490;-80
2023/02/06 09:11:37;;;;;;;14.38;1.98;;;;;;;5.58;100.00;102683.34;5062111;28;20044;-80
2023/02/06 09:14:04;;;;;;;11.65;1.60;;;;;;;5.64;100.00;102676.19;5046286;28;20565;-79
2023/02/06 09:16:33;;;;;;;15.15;1.98;;;;;;;5.65;100.00;102684.00;5046481;28;20036;-79
2023/02/06 09:19:00;;;;;;;7.32;1.83;;;;;;;5.66;100.00;102671.72;5078633;28;20032;-80
2023/02/06 09:21:29;;;;;;;14.75;2.30;;;;;;;5.73;100.00;102665.34;5075949;28;20037;-79
2023/02/06 09:23:58;;;;;;;6.88;1.75;;;;;;;5.80;100.00;102668.56;5080041;28;20024;-79
2023/02/06 09:26:30;;;;;;;15.00;2.00;;;;;;;5.83;100.00;102673.69;5065153;28;20028;-79
2023/02/06 09:28:58;;;;;;;18.67;2.50;;;;;;;5.86;100.00;102664.88;5060901;28;20485;-79
2023/02/06 09:31:25;;;;;;;12.15;1.98;;;;;;;5.87;100.00;102667.44;5063300;28;20033;-79
2023/02/06 09:33:52;;;;;;;13.70;2.67;;;;;;;5.87;100.00;102659.56;5081393;28;20190;-79
2023/02/06 09:36:20;;;;;;;11.95;1.98;;;;;;;5.86;100.00;102659.63;5057697;28;20147;-79
2023/02/06 09:38:49;;;;;;;14.32;2.15;;;;;;;5.86;100.00;102670.13;5062493;28;20028;-79
2023/02/06 09:41:18;;;;;;;18.67;1.85;;;;;;;5.83;100.00;102668.44;5062083;28;20036;-79
2023/02/06 09:43:52;;;;;;;13.93;2.15;;;;;;;5.83;100.00;102669.31;5060605;28;20024;-79
2023/02/06 09:46:22;;;;;;;13.00;1.85;;;;;;;5.85;100.00;102669.25;5048703;28;20115;-79
2023/02/06 09:48:49;;;;;;;12.15;1.63;;;;;;;5.88;100.00;102661.28;5075155;28;20040;-79
2023/02/06 09:51:38;;;;;;;14.05;1.73;;;;;;;5.97;100.00;102654.81;5064792;28;20111;-79
2023/02/06 09:54:13;;;;;;;9.57;1.42;;;;;;;6.02;100.00;102650.22;5056791;28;20033;-79
2023/02/06 09:56:57;;;;;;;14.73;2.22;;;;;;;6.11;100.00;102650.81;5079973;28;20500;-79
2023/02/06 09:59:44;;;;;;;18.00;1.67;;;;;;;6.17;100.00;102656.69;5077627;28;20072;-79
2023/02/06 10:02:31;;;;;;;9.00;1.42;;;;;;;6.25;100.00;102658.16;5043647;28;20393;-79
2023/02/06 10:05:31;;;;;;;16.35;2.17;;;;;;;6.30;100.00;102646.56;5064852;28;20028;-79
2023/02/06 10:08:15;;;;;;;15.27;2.95;;;;;;;6.34;100.00;102652.53;5080096;28;20040;-80
2023/02/06 10:10:50;;;;;;;7.72;1.88;;;;;;;6.39;100.00;102654.97;5062036;28;20119;-79
2023/02/06 10:13:40;;;;;;;8.93;1.48;;;;;;;6.46;100.00;102651.19;5063476;28;20040;-80
2023/02/06 10:16:30;;;;;;;13.48;1.77;;;;;;;6.56;100.00;102649.06;5065226;28;20393;-79
2023/02/06 10:19:01;;;;;;;10.88;1.55;;;;;;;6.65;100.00;102646.03;5064586;28;20297;-80
2023/02/06 10:21:30;;;;;;;20.38;2.67;;;;;;;6.67;100.00;102646.81;5068293;28;20032;-79
2023/02/06 10:24:04;;;;;;;12.57;2.33;;;;;;;6.74;100.00;102641.31;5064949;28;20712;-80
2023/02/06 10:26:33;;;;;;;13.50;1.88;;;;;;;6.84;100.00;102645.25;5078607;28;20107;-80
2023/02/06 10:28:59;;;;;;;11.30;1.38;;;;;;;6.91;100.00;102644.06;5082341;28;20484;-80
2023/02/06 10:31:46;;;;;;;10.27;2.00;;;;;;;6.99;100.00;102640.28;5064368;28;20047;-80
2023/02/06 10:34:36;;;;;;;12.18;1.75;;;;;;;6.94;100.00;102640.47;5064615;28;20037;-80
2023/02/06 10:37:39;;;;;;;11.30;2.50;;;;;;;6.91;100.00;102636.19;5065526;28;20036;-80
2023/02/06 10:40:28;;;;;;;11.88;1.73;;;;;;;6.87;100.00;102642.50;5084164;28;20028;-81
2023/02/06 10:43:11;;;;;;;15.73;2.42;;;;;;;6.87;100.00;102631.13;5066145;28;20063;-80
2023/02/06 10:45:46;;;;;;;11.77;1.42;;;;;;;6.87;100.00;102620.59;5064570;28;20052;-80
2023/02/06 10:48:27;;;;;;;10.38;1.67;;;;;;;6.86;100.00;102632.06;5083473;28;20029;-80
2023/02/06 10:51:00;;;;;;;14.07;3.28;;;;;;;6.95;100.00;102624.63;5046845;28;20036;-80
2023/02/06 10:53:31;;;;;;;19.08;2.58;;;;;;;7.05;100.00;102618.97;5062081;28;20183;-79
2023/02/06 10:56:26;;;;;;;10.90;2.03;;;;;;;7.26;100.00;102611.88;5069724;28;20032;-80
2023/02/06 10:59:01;;;;;;;12.07;1.60;;;;;;;7.37;100.00;102621.97;5082093;28;20028;-80
2023/02/06 11:01:34;;;;;;;15.57;2.65;;;;;;;7.36;100.00;102617.59;5080803;28;20036;-80
2023/02/06 11:04:10;;;;;;;10.73;1.63;;;;;;;7.35;100.00;102612.41;5063591;28;20365;-80
2023/02/06 11:06:39;;;;;;;7.60;1.30;;;;;;;7.28;100.00;102610.06;5062138;28;20045;-81
2023/02/06 11:09:05;;;;;;;8.73;1.60;;;;;;;7.20;100.00;102609.53;5064591;28;20036;-80
2023/02/06 11:11:36;;;;;;;10.82;1.98;;;;;;;7.16;100.00;102600.09;5081974;28;20032;-80
2023/02/06 11:14:14;;;;;;;12.50;1.48;;;;;;;7.07;100.00;102601.34;5066857;28;20071;-80
2023/02/06 11:16:41;;;;;;;7.07;1.50;;;;;;;7.07;100.00;102602.19;5066505;28;20046;-80
2023/02/06 11:19:18;;;;;;;10.73;1.83;;;;;;;7.10;100.00;102601.22;5046910;28;20063;-79
2023/02/06 11:21:49;;;;;;;12.40;1.77;;;;;;;7.13;100.00;102594.97;5060059;28;20500;-80
2023/02/06 11:24:19;;;;;;;10.68;1.50;;;;;;;7.16;100.00;102602.72;5083419;28;20094;-80
2023/02/06 11:26:53;;;;;;;9.90;1.80;;;;;;;7.22;100.00;102597.19;5063263;28;20033;-80
2023/02/06 11:29:24;;;;;;;11.32;1.38;;;;;;;7.22;100.00;102589.28;5045913;28;20040;-80